createdAt,value
2023-03-08T00:02:21.302Z,-1.58
2023-03-08T00:04:47.523Z,-1.57
2023-03-08T00:07:13.756Z,-1.54
2023-03-08T00:09:39.969Z,-1.55
2023-03-08T00:12:06.282Z,-1.52
2023-03-08T00:14:32.486Z,-1.54
2023-03-08T00:16:58.702Z,-1.55
2023-03-08T00:19:24.911Z,-1.51
2023-03-08T00:21:51.128Z,-1.48
2023-03-08T00:24:17.329Z,-1.45
2023-03-08T00:26:43.658Z,-1.49
2023-03-08T00:29:09.919Z,-1.51
2023-03-08T00:31:36.210Z,-1.53
2023-03-08T00:34:02.430Z,-1.56
2023-03-08T00:36:28.639Z,-1.53
2023-03-08T00:38:55.686Z,-1.53
2023-03-08T00:41:21.893Z,-1.56
2023-03-08T00:43:48.190Z,-1.50
2023-03-08T00:46:14.428Z,-1.53
2023-03-08T00:48:40.795Z,-1.55
2023-03-08T00:51:07.015Z,-1.53
2023-03-08T00:53:33.266Z,-1.54
2023-03-08T00:55:59.471Z,-1.54
2023-03-08T00:58:26.039Z,-1.58
2023-03-08T01:00:52.299Z,-1.59
2023-03-08T01:03:18.574Z,-1.56
2023-03-08T01:05:45.995Z,-1.60
2023-03-08T01:08:12.270Z,-1.52
2023-03-08T01:10:38.467Z,-1.56
2023-03-08T01:13:05.083Z,-1.57
2023-03-08T01:15:31.295Z,-1.59
2023-03-08T01:17:57.521Z,-1.51
2023-03-08T01:20:23.741Z,-1.57
2023-03-08T01:22:49.961Z,-1.55
2023-03-08T01:25:16.175Z,-1.54
2023-03-08T01:27:42.394Z,-1.53
2023-03-08T01:30:08.853Z,-1.56
2023-03-08T01:32:35.102Z,-1.57
2023-03-08T01:35:01.323Z,-1.65
2023-03-08T01:37:27.543Z,-1.71
2023-03-08T01:39:53.737Z,-1.75
2023-03-08T01:42:19.946Z,-1.75
2023-03-08T01:44:49.917Z,-1.71
2023-03-08T01:47:19.883Z,-1.72
2023-03-08T01:49:46.087Z,-1.75
2023-03-08T01:52:12.879Z,-1.78
2023-03-08T01:54:46.749Z,-1.83
2023-03-08T01:57:18.936Z,-1.77
2023-03-08T01:59:45.152Z,-1.77
2023-03-08T02:02:11.374Z,-1.73
2023-03-08T02:04:37.572Z,-1.75
2023-03-08T02:07:03.795Z,-1.68
2023-03-08T02:09:30.036Z,-1.67
2023-03-08T02:11:57.269Z,-1.74
2023-03-08T02:14:23.467Z,-1.69
2023-03-08T02:16:49.674Z,-1.73
2023-03-08T02:19:17.426Z,-1.69
2023-03-08T02:21:43.667Z,-1.72
2023-03-08T02:24:20.054Z,-1.66
2023-03-08T02:26:46.282Z,-1.62
2023-03-08T02:29:12.502Z,-1.55
2023-03-08T02:31:38.715Z,-1.55
2023-03-08T02:34:04.932Z,-1.53
2023-03-08T02:36:31.167Z,-1.49
2023-03-08T02:38:57.543Z,-1.46
2023-03-08T02:41:23.741Z,-1.45
2023-03-08T02:43:49.966Z,-1.47
2023-03-08T02:46:16.168Z,-1.55
2023-03-08T02:48:42.398Z,-1.57
2023-03-08T02:51:08.837Z,-1.60
2023-03-08T02:53:35.041Z,-1.67
2023-03-08T02:56:01.252Z,-1.73
2023-03-08T02:58:27.468Z,-1.77
2023-03-08T03:00:53.694Z,-1.78
2023-03-08T03:03:19.915Z,-1.79
2023-03-08T03:05:46.115Z,-1.75
2023-03-08T03:08:12.322Z,-1.67
2023-03-08T03:10:41.539Z,-1.70
2023-03-08T03:13:07.753Z,-1.72
2023-03-08T03:15:34.017Z,-1.69
2023-03-08T03:18:00.238Z,-1.68
2023-03-08T03:20:26.432Z,-1.69
2023-03-08T03:22:52.658Z,-1.67
2023-03-08T03:25:18.870Z,-1.73
2023-03-08T03:27:45.080Z,-1.80
2023-03-08T03:30:11.518Z,-1.78
2023-03-08T03:32:37.771Z,-1.75
2023-03-08T03:35:04.049Z,-1.81
2023-03-08T03:37:30.256Z,-1.91
2023-03-08T03:39:56.615Z,-1.98
2023-03-08T03:42:22.817Z,-2.01
2023-03-08T03:44:49.040Z,-2.01
2023-03-08T03:47:15.238Z,-2.06
2023-03-08T03:49:41.452Z,-2.03
2023-03-08T03:52:07.677Z,-2.06
2023-03-08T03:54:33.893Z,-2.01
2023-03-08T03:57:00.111Z,-1.95
2023-03-08T03:59:26.918Z,-1.95
2023-03-08T04:01:53.238Z,-1.94
2023-03-08T04:04:19.537Z,-1.89
2023-03-08T04:06:45.739Z,-1.85
2023-03-08T04:09:15.834Z,-1.82
2023-03-08T04:11:42.183Z,-1.83
2023-03-08T04:14:08.442Z,-1.80
2023-03-08T04:16:35.248Z,-1.81
2023-03-08T04:19:02.272Z,-1.71
2023-03-08T04:21:28.542Z,-1.64
2023-03-08T04:23:54.771Z,-1.62
2023-03-08T04:26:20.984Z,-1.58
2023-03-08T04:28:47.191Z,-1.53
2023-03-08T04:31:14.178Z,-1.50
2023-03-08T04:33:40.429Z,-1.52
2023-03-08T04:36:06.820Z,-1.47
2023-03-08T04:38:33.079Z,-1.49
2023-03-08T04:40:59.282Z,-1.46
2023-03-08T04:43:25.527Z,-1.47
2023-03-08T04:45:51.736Z,-1.44
2023-03-08T04:48:17.958Z,-1.37
2023-03-08T04:50:44.161Z,-1.35
2023-03-08T04:53:10.385Z,-1.30
2023-03-08T04:55:36.714Z,-1.27
2023-03-08T04:58:02.916Z,-1.25
2023-03-08T05:00:29.121Z,-1.15
2023-03-08T05:02:55.331Z,-1.12
2023-03-08T05:05:21.536Z,-1.12
2023-03-08T05:07:47.750Z,-1.08
2023-03-08T05:10:13.963Z,-1.10
2023-03-08T05:12:40.161Z,-1.11
2023-03-08T05:15:06.612Z,-1.09
2023-03-08T05:17:32.815Z,-1.10
2023-03-08T05:19:59.023Z,-1.13
2023-03-08T05:22:25.235Z,-1.14
2023-03-08T05:24:51.444Z,-1.13
2023-03-08T05:27:17.664Z,-1.13
2023-03-08T05:29:43.883Z,-1.10
2023-03-08T05:32:13.194Z,-1.05
2023-03-08T05:34:39.431Z,-1.01
2023-03-08T05:37:05.649Z,-0.98
2023-03-08T05:39:31.920Z,-0.94
2023-03-08T05:41:58.135Z,-0.90
2023-03-08T05:44:24.352Z,-0.86
2023-03-08T05:46:50.860Z,-0.84
2023-03-08T05:49:17.084Z,-0.83
2023-03-08T05:51:43.275Z,-0.82
2023-03-08T05:54:09.492Z,-0.79
2023-03-08T05:56:35.686Z,-0.78
2023-03-08T05:59:01.911Z,-0.76
2023-03-08T06:01:28.172Z,-0.77
2023-03-08T06:03:55.538Z,-0.77
2023-03-08T06:06:22.092Z,-0.77
2023-03-08T06:08:48.372Z,-0.75
2023-03-08T06:11:14.632Z,-0.78
2023-03-08T06:13:40.855Z,-0.76
2023-03-08T06:16:07.077Z,-0.82
2023-03-08T06:18:33.461Z,-0.80
2023-03-08T06:21:19.900Z,-0.75
2023-03-08T06:23:46.127Z,-0.74
2023-03-08T06:26:12.504Z,-0.75
2023-03-08T06:28:38.974Z,-0.77
2023-03-08T06:31:05.218Z,-0.71
2023-03-08T06:33:32.079Z,-0.62
2023-03-08T06:36:02.170Z,-0.59
2023-03-08T06:38:29.883Z,-0.55
2023-03-08T06:40:56.797Z,-0.58
2023-03-08T06:43:23.086Z,-0.54
2023-03-08T06:45:49.312Z,-0.49
2023-03-08T06:48:15.566Z,-0.45
2023-03-08T06:50:41.894Z,-0.32
2023-03-08T06:53:08.166Z,-0.28
2023-03-08T06:55:35.063Z,-0.33
2023-03-08T06:58:01.264Z,-0.24
2023-03-08T07:00:27.511Z,-0.26
2023-03-08T07:02:53.710Z,-0.36
2023-03-08T07:05:19.931Z,-0.42
2023-03-08T07:07:46.139Z,-0.43
2023-03-08T07:10:12.411Z,-0.42
2023-03-08T07:12:38.617Z,-0.43
2023-03-08T07:15:05.043Z,-0.36
2023-03-08T07:17:31.247Z,-0.32
2023-03-08T07:19:57.457Z,-0.31
2023-03-08T07:22:23.667Z,-0.28
2023-03-08T07:24:49.885Z,-0.21
2023-03-08T07:27:16.077Z,-0.07
2023-03-08T07:29:42.279Z,0.03
2023-03-08T07:32:08.540Z,0.04
2023-03-08T07:34:34.846Z,0.06
2023-03-08T07:37:01.100Z,0.15
2023-03-08T07:39:27.312Z,0.17
2023-03-08T07:41:53.518Z,0.18
2023-03-08T07:44:19.743Z,0.29
2023-03-08T07:46:46.097Z,0.24
2023-03-08T07:49:12.314Z,0.32
2023-03-08T07:51:38.506Z,0.36
2023-03-08T07:54:04.771Z,0.41
2023-03-08T07:56:30.974Z,0.51
2023-03-08T07:58:57.205Z,0.54
2023-03-08T08:01:23.418Z,0.54
2023-03-08T08:03:50.032Z,0.56
2023-03-08T08:06:16.457Z,0.62
2023-03-08T08:08:42.663Z,0.65
2023-03-08T08:11:15.282Z,0.69
2023-03-08T08:13:41.524Z,0.66
2023-03-08T08:16:07.841Z,0.62
2023-03-08T08:18:34.407Z,0.59
2023-03-08T08:21:01.350Z,0.44
2023-03-08T08:23:27.815Z,0.54
2023-03-08T08:25:54.067Z,0.50
2023-03-08T08:28:20.292Z,0.42
2023-03-08T08:30:54.672Z,0.42
2023-03-08T08:33:20.882Z,0.47
2023-03-08T08:35:47.147Z,0.42
2023-03-08T08:38:13.385Z,0.47
2023-03-08T08:40:39.596Z,0.52
2023-03-08T08:43:05.807Z,0.73
2023-03-08T08:45:32.031Z,0.79
2023-03-08T08:47:58.247Z,1.01
2023-03-08T08:50:24.763Z,1.06
2023-03-08T08:52:51.113Z,1.17
2023-03-08T08:55:17.344Z,1.38
2023-03-08T09:00:14.127Z,1.25
2023-03-08T09:03:20.393Z,1.28
2023-03-08T09:05:46.996Z,1.16
2023-03-08T09:08:13.277Z,1.33
2023-03-08T09:10:39.967Z,1.34
2023-03-08T09:13:06.313Z,1.19
2023-03-08T09:15:32.567Z,1.18
2023-03-08T09:17:58.846Z,1.18
2023-03-08T09:20:25.109Z,1.16
2023-03-08T09:22:51.399Z,1.05
2023-03-08T09:25:17.662Z,1.10
2023-03-08T09:27:43.856Z,0.99
2023-03-08T09:30:11.076Z,0.93
2023-03-08T09:32:37.292Z,0.95
2023-03-08T09:35:03.537Z,1.07
2023-03-08T09:37:29.810Z,1.13
2023-03-08T09:39:56.045Z,1.22
2023-03-08T09:42:23.157Z,1.32
2023-03-08T09:44:58.573Z,1.35
2023-03-08T09:47:28.756Z,1.35
2023-03-08T09:49:55.874Z,1.28
2023-03-08T09:52:27.688Z,1.25
2023-03-08T09:54:53.936Z,1.26
2023-03-08T09:57:22.371Z,1.22
2023-03-08T09:59:51.434Z,1.30
2023-03-08T10:02:49.829Z,1.28
2023-03-08T10:05:17.257Z,1.37
2023-03-08T10:07:45.673Z,1.48
2023-03-08T10:10:23.360Z,1.56
2023-03-08T10:12:57.362Z,1.43
2023-03-08T10:15:23.740Z,1.45
2023-03-08T10:17:52.119Z,1.45
2023-03-08T10:20:36.915Z,1.48
2023-03-08T10:23:16.468Z,1.64
2023-03-08T10:25:42.837Z,1.63
2023-03-08T10:28:13.581Z,1.57
2023-03-08T10:30:45.117Z,1.45
2023-03-08T10:33:12.068Z,1.41
2023-03-08T10:35:53.727Z,1.32
2023-03-08T10:38:19.985Z,1.46
2023-03-08T10:40:46.206Z,1.60
2023-03-08T10:43:38.756Z,1.75
2023-03-08T10:46:05.893Z,1.92
2023-03-08T10:48:32.125Z,2.05
2023-03-08T10:50:59.253Z,2.39
2023-03-08T10:53:25.479Z,2.64
2023-03-08T10:55:51.802Z,2.73
2023-03-08T10:58:28.352Z,2.80
2023-03-08T11:00:55.114Z,2.57
2023-03-08T11:03:21.976Z,2.77
2023-03-08T11:05:55.531Z,2.84
2023-03-08T11:08:23.356Z,2.92
2023-03-08T11:10:59.291Z,2.99
2023-03-08T11:13:51.630Z,3.08
2023-03-08T11:16:33.088Z,2.92
2023-03-08T11:19:18.045Z,2.61
2023-03-08T11:21:56.169Z,2.45
2023-03-08T11:24:28.166Z,2.60
2023-03-08T11:27:09.083Z,2.36
2023-03-08T11:29:35.288Z,2.37
2023-03-08T11:32:04.484Z,2.36
2023-03-08T11:34:38.841Z,2.33
2023-03-08T11:37:11.200Z,2.33
2023-03-08T11:39:37.413Z,2.31
2023-03-08T11:42:04.202Z,2.15
2023-03-08T11:44:39.625Z,1.88
2023-03-08T11:47:05.849Z,1.95
2023-03-08T11:49:50.951Z,1.97
2023-03-08T11:52:17.102Z,2.02
2023-03-08T11:54:55.178Z,2.02
2023-03-08T11:57:21.399Z,1.99
2023-03-08T11:59:52.508Z,2.02
2023-03-08T12:02:20.153Z,2.20
2023-03-08T12:04:58.631Z,2.34
2023-03-08T12:07:32.452Z,2.35
2023-03-08T12:09:59.868Z,2.34
2023-03-08T12:12:29.235Z,2.47
2023-03-08T12:14:57.066Z,2.42
2023-03-08T12:17:34.819Z,2.45
2023-03-08T12:20:01.056Z,2.59
2023-03-08T12:22:27.223Z,2.33
2023-03-08T12:25:12.025Z,2.46
2023-03-08T12:27:38.199Z,2.70
2023-03-08T12:30:07.065Z,2.80
2023-03-08T12:32:33.418Z,2.91
2023-03-08T12:35:03.778Z,2.97
2023-03-08T12:37:30.074Z,2.88
2023-03-08T12:42:29.867Z,3.05
2023-03-08T12:45:05.325Z,3.04
2023-03-08T12:47:31.536Z,2.95
2023-03-08T12:49:57.794Z,2.73
2023-03-08T12:52:33.180Z,2.55
2023-03-08T12:55:17.957Z,2.61
2023-03-08T12:57:48.594Z,2.70
2023-03-08T13:00:31.065Z,2.90
2023-03-08T13:03:01.337Z,3.02
2023-03-08T13:05:27.598Z,2.94
2023-03-08T13:08:12.237Z,2.98
2023-03-08T13:10:39.112Z,2.97
2023-03-08T13:13:20.465Z,2.92
2023-03-08T13:16:06.701Z,2.90
2023-03-08T13:18:32.912Z,2.85
2023-03-08T13:21:04.832Z,2.83
2023-03-08T13:23:36.383Z,2.72
2023-03-08T13:26:14.358Z,2.88
2023-03-08T13:28:47.751Z,3.02
2023-03-08T13:31:21.711Z,3.16
2023-03-08T13:33:51.956Z,3.22
2023-03-08T13:36:22.125Z,3.08
2023-03-08T13:38:57.605Z,3.07
2023-03-08T13:41:34.000Z,3.08
2023-03-08T13:44:00.952Z,3.12
2023-03-08T13:46:27.185Z,3.03
2023-03-08T13:48:53.422Z,3.03
2023-03-08T13:51:19.637Z,3.02
2023-03-08T13:53:45.888Z,2.96
2023-03-08T13:56:19.840Z,2.87
2023-03-08T13:58:46.141Z,2.77
2023-03-08T14:01:19.377Z,2.74
2023-03-08T14:03:45.875Z,2.77
2023-03-08T14:06:31.132Z,2.95
2023-03-08T14:08:57.558Z,2.85
2023-03-08T14:11:28.251Z,2.92
2023-03-08T14:13:54.859Z,2.98
2023-03-08T14:16:29.305Z,2.71
2023-03-08T14:18:55.569Z,2.71
2023-03-08T14:21:22.564Z,2.84
2023-03-08T14:23:49.363Z,2.82
2023-03-08T14:26:31.948Z,2.77
2023-03-08T14:29:09.643Z,2.68
2023-03-08T14:31:36.019Z,2.56
2023-03-08T14:34:02.934Z,2.61
2023-03-08T14:36:30.075Z,2.67
2023-03-08T14:38:56.409Z,2.73
2023-03-08T14:41:29.264Z,2.91
2023-03-08T14:43:55.484Z,2.87
2023-03-08T14:46:21.804Z,2.86
2023-03-08T14:48:56.204Z,2.66
2023-03-08T14:51:29.852Z,2.72
2023-03-08T14:53:57.301Z,2.70
2023-03-08T14:56:23.508Z,2.61
2023-03-08T14:58:50.254Z,2.59
2023-03-08T15:01:32.814Z,2.59
2023-03-08T15:03:59.279Z,2.53
2023-03-08T15:06:27.055Z,2.46
2023-03-08T15:08:53.257Z,2.31
2023-03-08T15:11:19.468Z,2.18
2023-03-08T15:13:45.686Z,2.09
2023-03-08T15:16:14.526Z,2.01
2023-03-08T15:18:41.125Z,1.92
2023-03-08T15:21:10.728Z,1.94
2023-03-08T15:23:37.086Z,1.84
2023-03-08T15:26:06.316Z,1.86
2023-03-08T15:28:32.524Z,1.83
2023-03-08T15:30:58.816Z,1.87
2023-03-08T15:33:25.036Z,1.79
2023-03-08T15:35:51.273Z,1.77
2023-03-08T15:38:17.972Z,1.75
2023-03-08T15:40:44.196Z,1.74
2023-03-08T15:43:10.407Z,1.72
2023-03-08T15:45:36.777Z,1.70
2023-03-08T15:48:04.187Z,1.63
2023-03-08T15:50:30.419Z,1.66
2023-03-08T15:52:56.775Z,1.68
2023-03-08T15:55:23.345Z,1.67
2023-03-08T15:57:49.622Z,1.71
2023-03-08T16:00:16.327Z,1.71
2023-03-08T16:02:42.587Z,1.67
2023-03-08T16:05:09.485Z,1.74
2023-03-08T16:07:35.752Z,1.77
2023-03-08T16:10:02.020Z,1.79
2023-03-08T16:12:28.219Z,1.75
2023-03-08T16:14:54.528Z,1.67
2023-03-08T16:17:20.851Z,1.58
2023-03-08T16:19:47.149Z,1.52
2023-03-08T16:22:13.414Z,1.49
2023-03-08T16:24:39.627Z,1.48
2023-03-08T16:27:05.916Z,1.43
2023-03-08T16:29:32.399Z,1.37
2023-03-08T16:31:58.684Z,1.30
2023-03-08T16:34:25.360Z,1.19
2023-03-08T16:36:52.339Z,1.18
2023-03-08T16:39:18.566Z,1.15
2023-03-08T16:41:44.803Z,1.12
2023-03-08T16:44:24.229Z,1.08
2023-03-08T16:46:50.431Z,1.05
2023-03-08T16:49:16.817Z,1.04
2023-03-08T16:51:43.104Z,1.00
2023-03-08T16:54:12.556Z,1.02
2023-03-08T16:56:38.928Z,1.02
2023-03-08T16:59:05.151Z,1.04
2023-03-08T17:01:31.414Z,0.97
2023-03-08T17:03:57.666Z,0.92
2023-03-08T17:06:24.860Z,0.85
2023-03-08T17:08:51.108Z,0.69
2023-03-08T17:11:17.944Z,0.64
2023-03-08T17:13:46.476Z,0.72
2023-03-08T17:16:12.794Z,0.68
2023-03-08T17:18:39.216Z,0.74
2023-03-08T17:21:05.677Z,0.74
2023-03-08T17:23:31.896Z,0.73
2023-03-08T17:25:58.114Z,0.64
2023-03-08T17:28:24.320Z,0.60
2023-03-08T17:30:50.563Z,0.57
2023-03-08T17:33:16.791Z,0.49
2023-03-08T17:35:43.050Z,0.48
2023-03-08T17:38:09.290Z,0.48
2023-03-08T17:40:37.709Z,0.46
2023-03-08T17:43:03.932Z,0.39
2023-03-08T17:45:30.197Z,0.36
2023-03-08T17:47:56.412Z,0.41
2023-03-08T17:50:24.873Z,0.40
2023-03-08T17:52:51.957Z,0.45
2023-03-08T17:55:18.200Z,0.44
2023-03-08T17:57:44.417Z,0.34
2023-03-08T18:00:10.960Z,0.24
2023-03-08T18:02:37.285Z,0.19
2023-03-08T18:05:03.575Z,0.19
2023-03-08T18:07:29.864Z,0.07
2023-03-08T18:09:56.100Z,-0.03
2023-03-08T18:12:22.352Z,-0.06
2023-03-08T18:14:48.555Z,-0.16
2023-03-08T18:17:14.759Z,-0.23
2023-03-08T18:19:40.959Z,-0.19
2023-03-08T18:22:07.224Z,-0.18
2023-03-08T18:24:33.462Z,-0.13
2023-03-08T18:26:59.678Z,-0.15
2023-03-08T18:29:25.883Z,-0.16
2023-03-08T18:31:52.100Z,-0.21
2023-03-08T18:34:18.304Z,-0.25
2023-03-08T18:36:44.556Z,-0.24
2023-03-08T18:39:11.876Z,-0.18
2023-03-08T18:41:38.082Z,0.07
2023-03-08T18:44:04.329Z,0.18
2023-03-08T18:46:31.091Z,0.27
2023-03-08T18:49:01.330Z,0.15
2023-03-08T18:51:27.971Z,0.07
2023-03-08T18:53:54.498Z,0.16
2023-03-08T18:56:20.686Z,0.07
2023-03-08T18:58:46.887Z,-0.23
2023-03-08T19:01:13.788Z,-0.30
2023-03-08T19:03:40.233Z,-0.33
2023-03-08T19:06:06.568Z,-0.37
2023-03-08T19:08:32.783Z,-0.06
2023-03-08T19:10:59.085Z,-0.06
2023-03-08T19:13:25.294Z,-0.27
2023-03-08T19:15:51.501Z,-0.33
2023-03-08T19:18:17.741Z,-0.28
2023-03-08T19:20:43.946Z,-0.26
2023-03-08T19:23:10.164Z,-0.27
2023-03-08T19:25:36.608Z,-0.10
2023-03-08T19:28:02.828Z,-0.07
2023-03-08T19:30:29.100Z,-0.10
2023-03-08T19:32:55.843Z,-0.37
2023-03-08T19:35:22.074Z,-0.51
2023-03-08T19:37:48.305Z,-0.53
2023-03-08T19:40:14.495Z,-0.56
2023-03-08T19:42:40.710Z,-0.59
2023-03-08T19:45:07.273Z,-0.62
2023-03-08T19:47:33.499Z,-0.79
2023-03-08T19:49:59.742Z,-0.65
2023-03-08T19:52:25.985Z,-0.51
2023-03-08T19:54:52.339Z,-0.37
2023-03-08T19:57:20.896Z,-0.39
2023-03-08T19:59:47.152Z,-0.31
2023-03-08T20:02:13.350Z,-0.32
2023-03-08T20:04:40.921Z,-0.35
2023-03-08T20:07:07.300Z,-0.43
2023-03-08T20:09:33.547Z,-0.43
2023-03-08T20:11:59.753Z,-0.37
2023-03-08T20:14:26.089Z,-0.42
2023-03-08T20:16:52.349Z,-0.50
2023-03-08T20:19:18.662Z,-0.54
2023-03-08T20:21:44.941Z,-0.45
2023-03-08T20:24:11.177Z,-0.62
2023-03-08T20:26:37.477Z,-0.59
2023-03-08T20:29:03.759Z,-0.65
2023-03-08T20:31:31.636Z,-0.67
2023-03-08T20:33:57.851Z,-0.75
2023-03-08T20:36:24.061Z,-0.72
2023-03-08T20:38:50.274Z,-0.72
2023-03-08T20:41:17.315Z,-0.76
2023-03-08T20:43:43.704Z,-0.79
2023-03-08T20:46:10.443Z,-0.87
2023-03-08T20:48:37.449Z,-1.08
2023-03-08T20:51:03.832Z,-1.02
2023-03-08T20:53:30.150Z,-0.97
2023-03-08T20:55:56.441Z,-0.98
2023-03-08T20:58:22.651Z,-1.03
2023-03-08T21:00:48.896Z,-1.06
2023-03-08T21:03:15.104Z,-1.14
2023-03-08T21:05:42.465Z,-1.20
2023-03-08T21:08:26.610Z,-1.13
2023-03-08T21:10:52.832Z,-1.11
2023-03-08T21:13:19.038Z,-1.13
2023-03-08T21:15:45.342Z,-1.10
2023-03-08T21:18:11.672Z,-1.04
2023-03-08T21:20:37.956Z,-1.08
2023-03-08T21:23:04.165Z,-1.26
2023-03-08T21:25:32.799Z,-1.28
2023-03-08T21:27:59.032Z,-1.29
2023-03-08T21:30:25.284Z,-1.31
2023-03-08T21:32:51.590Z,-1.22
2023-03-08T21:35:20.223Z,-1.25
2023-03-08T21:37:46.428Z,-1.28
2023-03-08T21:40:12.693Z,-1.24
2023-03-08T21:42:38.918Z,-1.21
2023-03-08T21:45:05.316Z,-1.08
2023-03-08T21:47:31.531Z,-1.06
2023-03-08T21:49:57.739Z,-1.14
2023-03-08T21:52:23.933Z,-1.22
2023-03-08T21:54:50.162Z,-1.17
2023-03-08T21:57:16.373Z,-1.15
2023-03-08T21:59:42.586Z,-1.16
2023-03-08T22:02:09.374Z,-1.12
2023-03-08T22:04:36.630Z,-1.22
2023-03-08T22:07:02.836Z,-1.21
2023-03-08T22:09:29.080Z,-1.23
2023-03-08T22:11:55.368Z,-1.20
2023-03-08T22:14:21.585Z,-1.21
2023-03-08T22:16:48.378Z,-1.21
2023-03-08T22:19:14.587Z,-1.14
2023-03-08T22:21:40.785Z,-1.15
2023-03-08T22:24:07.020Z,-1.17
2023-03-08T22:26:33.243Z,-1.28
2023-03-08T22:28:59.495Z,-1.28
2023-03-08T22:31:26.158Z,-1.16
2023-03-08T22:33:52.404Z,-1.13
2023-03-08T22:36:18.795Z,-1.20
2023-03-08T22:38:45.014Z,-1.30
2023-03-08T22:41:11.769Z,-1.31
2023-03-08T22:43:38.254Z,-1.32
2023-03-08T22:46:11.492Z,-1.28
2023-03-08T22:48:37.732Z,-1.19
2023-03-08T22:51:10.769Z,-1.25
2023-03-08T22:53:37.561Z,-1.24
2023-03-08T22:56:03.807Z,-1.31
2023-03-08T22:58:30.012Z,-1.36
2023-03-08T23:00:56.221Z,-1.39
2023-03-08T23:03:22.530Z,-1.39
2023-03-08T23:05:48.772Z,-1.43
2023-03-08T23:08:14.970Z,-1.44
2023-03-08T23:10:41.189Z,-1.42
2023-03-08T23:13:07.384Z,-1.41
2023-03-08T23:15:33.605Z,-1.38
2023-03-08T23:17:59.812Z,-1.42
2023-03-08T23:20:26.041Z,-1.41
2023-03-08T23:22:52.250Z,-1.45
2023-03-08T23:25:18.467Z,-1.47
2023-03-08T23:27:44.771Z,-1.47
2023-03-08T23:30:13.389Z,-1.46
2023-03-08T23:32:39.686Z,-1.49
2023-03-08T23:35:06.181Z,-1.49
2023-03-08T23:37:32.405Z,-1.51
2023-03-08T23:39:58.671Z,-1.41
2023-03-08T23:42:24.875Z,-1.40
2023-03-08T23:44:51.123Z,-1.47
2023-03-08T23:47:17.322Z,-1.52
2023-03-08T23:49:43.531Z,-1.55
2023-03-08T23:52:09.732Z,-1.55
2023-03-08T23:54:35.956Z,-1.61
2023-03-08T23:57:02.163Z,-1.68
2023-03-08T23:59:28.381Z,-1.69
